sensor_id;sensor_type;location;lat;lon;timestamp;temperature;humidity
27896;DHT22;15241;48.374;10.876;2023-07-30T00:01:12;19.10;99.90
27896;DHT22;15241;48.374;10.876;2023-07-30T00:06:30;18.90;99.90
27896;DHT22;15241;48.374;10.876;2023-07-30T00:11:47;18.90;99.90
27896;DHT22;15241;48.374;10.876;2023-07-30T00:17:05;18.80;99.90
27896;DHT22;15241;48.374;10.876;2023-07-30T00:22:23;18.90;99.90
27896;DHT22;15241;48.374;10.876;2023-07-30T00:27:41;19.00;99.90
27896;DHT22;15241;48.374;10.876;2023-07-30T00:32:58;19.00;99.90
27896;DHT22;15241;48.374;10.876;2023-07-30T00:38:16;18.90;99.90
27896;DHT22;15241;48.374;10.876;2023-07-30T00:43:33;18.90;99.90
27896;DHT22;15241;48.374;10.876;2023-07-30T00:48:51;18.80;99.90
27896;DHT22;15241;48.374;10.876;2023-07-30T00:54:09;18.80;99.90
27896;DHT22;15241;48.374;10.876;2023-07-30T00:59:27;18.80;99.90
27896;DHT22;15241;48.374;10.876;2023-07-30T01:04:45;18.70;99.90
27896;DHT22;15241;48.374;10.876;2023-07-30T01:10:03;18.80;99.90
27896;DHT22;15241;48.374;10.876;2023-07-30T01:15:21;18.80;99.90
27896;DHT22;15241;48.374;10.876;2023-07-30T01:20:39;18.70;99.90
27896;DHT22;15241;48.374;10.876;2023-07-30T01:26:00;18.80;99.90
27896;DHT22;15241;48.374;10.876;2023-07-30T01:31:19;18.70;99.90
27896;DHT22;15241;48.374;10.876;2023-07-30T01:36:38;18.70;99.90
27896;DHT22;15241;48.374;10.876;2023-07-30T01:41:56;18.70;99.90
27896;DHT22;15241;48.374;10.876;2023-07-30T01:47:13;18.60;99.90
27896;DHT22;15241;48.374;10.876;2023-07-30T01:52:30;18.70;99.90
27896;DHT22;15241;48.374;10.876;2023-07-30T01:57:48;18.90;99.90
27896;DHT22;15241;48.374;10.876;2023-07-30T02:03:05;18.90;99.90
27896;DHT22;15241;48.374;10.876;2023-07-30T02:08:23;18.80;99.90
27896;DHT22;15241;48.374;10.876;2023-07-30T02:13:41;18.90;99.90
27896;DHT22;15241;48.374;10.876;2023-07-30T02:18:58;19.00;99.90
27896;DHT22;15241;48.374;10.876;2023-07-30T02:24:16;19.10;99.90
27896;DHT22;15241;48.374;10.876;2023-07-30T02:29:33;19.10;99.90
27896;DHT22;15241;48.374;10.876;2023-07-30T02:34:51;19.00;99.90
27896;DHT22;15241;48.374;10.876;2023-07-30T02:40:11;19.00;99.90
27896;DHT22;15241;48.374;10.876;2023-07-30T02:45:29;19.00;99.90
27896;DHT22;15241;48.374;10.876;2023-07-30T02:50:46;19.00;99.90
27896;DHT22;15241;48.374;10.876;2023-07-30T02:56:04;18.90;99.90
27896;DHT22;15241;48.374;10.876;2023-07-30T03:01:21;18.90;99.90
27896;DHT22;15241;48.374;10.876;2023-07-30T03:06:39;18.90;99.90
27896;DHT22;15241;48.374;10.876;2023-07-30T03:11:56;18.90;99.90
27896;DHT22;15241;48.374;10.876;2023-07-30T03:17:14;18.70;99.90
27896;DHT22;15241;48.374;10.876;2023-07-30T03:22:31;18.70;99.90
27896;DHT22;15241;48.374;10.876;2023-07-30T03:27:49;18.60;99.90
27896;DHT22;15241;48.374;10.876;2023-07-30T03:33:07;18.50;99.90
27896;DHT22;15241;48.374;10.876;2023-07-30T03:38:25;18.40;99.90
27896;DHT22;15241;48.374;10.876;2023-07-30T03:43:42;18.50;99.90
27896;DHT22;15241;48.374;10.876;2023-07-30T03:48:59;18.40;99.90
27896;DHT22;15241;48.374;10.876;2023-07-30T03:54:16;18.30;99.90
27896;DHT22;15241;48.374;10.876;2023-07-30T03:59:34;18.10;99.90
27896;DHT22;15241;48.374;10.876;2023-07-30T04:04:52;18.00;99.90
27896;DHT22;15241;48.374;10.876;2023-07-30T04:10:09;17.90;99.90
27896;DHT22;15241;48.374;10.876;2023-07-30T04:15:27;18.00;99.90
27896;DHT22;15241;48.374;10.876;2023-07-30T04:20:45;18.00;99.90
27896;DHT22;15241;48.374;10.876;2023-07-30T04:26:02;18.00;99.90
27896;DHT22;15241;48.374;10.876;2023-07-30T04:31:19;17.90;99.90
27896;DHT22;15241;48.374;10.876;2023-07-30T04:36:36;17.90;99.90
27896;DHT22;15241;48.374;10.876;2023-07-30T04:41:54;17.90;99.90
27896;DHT22;15241;48.374;10.876;2023-07-30T04:47:12;18.00;99.90
27896;DHT22;15241;48.374;10.876;2023-07-30T04:52:29;18.10;99.90
27896;DHT22;15241;48.374;10.876;2023-07-30T04:57:46;18.20;99.90
27896;DHT22;15241;48.374;10.876;2023-07-30T05:03:04;18.30;99.90
27896;DHT22;15241;48.374;10.876;2023-07-30T05:08:21;18.30;99.90
27896;DHT22;15241;48.374;10.876;2023-07-30T05:13:39;18.40;99.90
27896;DHT22;15241;48.374;10.876;2023-07-30T05:18:57;18.50;99.90
27896;DHT22;15241;48.374;10.876;2023-07-30T05:24:14;18.60;99.90
27896;DHT22;15241;48.374;10.876;2023-07-30T05:29:31;18.60;99.90
27896;DHT22;15241;48.374;10.876;2023-07-30T05:34:49;18.70;99.90
27896;DHT22;15241;48.374;10.876;2023-07-30T05:40:08;18.80;99.90
27896;DHT22;15241;48.374;10.876;2023-07-30T05:45:26;18.80;99.90
27896;DHT22;15241;48.374;10.876;2023-07-30T05:50:43;19.10;99.90
27896;DHT22;15241;48.374;10.876;2023-07-30T05:56:00;19.10;99.90
27896;DHT22;15241;48.374;10.876;2023-07-30T06:01:18;19.20;99.90
27896;DHT22;15241;48.374;10.876;2023-07-30T06:06:35;19.20;99.90
27896;DHT22;15241;48.374;10.876;2023-07-30T06:11:53;19.30;99.90
27896;DHT22;15241;48.374;10.876;2023-07-30T06:17:10;19.40;99.90
27896;DHT22;15241;48.374;10.876;2023-07-30T06:22:28;19.40;99.90
27896;DHT22;15241;48.374;10.876;2023-07-30T06:27:46;19.50;99.90
27896;DHT22;15241;48.374;10.876;2023-07-30T06:33:04;19.60;99.90
27896;DHT22;15241;48.374;10.876;2023-07-30T06:38:21;19.60;99.90
27896;DHT22;15241;48.374;10.876;2023-07-30T06:43:39;19.70;99.90
27896;DHT22;15241;48.374;10.876;2023-07-30T06:48:56;19.80;99.90
27896;DHT22;15241;48.374;10.876;2023-07-30T06:54:14;19.80;99.90
27896;DHT22;15241;48.374;10.876;2023-07-30T06:59:33;19.90;99.90
27896;DHT22;15241;48.374;10.876;2023-07-30T07:04:50;20.10;99.90
27896;DHT22;15241;48.374;10.876;2023-07-30T07:10:09;20.20;99.90
27896;DHT22;15241;48.374;10.876;2023-07-30T07:15:27;20.50;99.90
27896;DHT22;15241;48.374;10.876;2023-07-30T07:20:44;20.60;99.90
27896;DHT22;15241;48.374;10.876;2023-07-30T07:26:02;20.60;99.90
27896;DHT22;15241;48.374;10.876;2023-07-30T07:31:19;20.90;99.90
27896;DHT22;15241;48.374;10.876;2023-07-30T07:36:38;21.10;99.90
27896;DHT22;15241;48.374;10.876;2023-07-30T07:41:56;21.10;99.90
27896;DHT22;15241;48.374;10.876;2023-07-30T07:47:13;21.30;99.90
27896;DHT22;15241;48.374;10.876;2023-07-30T07:52:31;21.50;99.90
27896;DHT22;15241;48.374;10.876;2023-07-30T07:57:49;21.70;99.90
27896;DHT22;15241;48.374;10.876;2023-07-30T08:03:06;22.00;99.90
27896;DHT22;15241;48.374;10.876;2023-07-30T08:08:26;22.00;99.90
27896;DHT22;15241;48.374;10.876;2023-07-30T08:13:43;22.30;99.90
27896;DHT22;15241;48.374;10.876;2023-07-30T08:19:00;22.30;99.90
27896;DHT22;15241;48.374;10.876;2023-07-30T08:24:18;22.50;99.90
27896;DHT22;15241;48.374;10.876;2023-07-30T08:29:36;22.50;99.90
27896;DHT22;15241;48.374;10.876;2023-07-30T08:34:54;22.80;99.90
27896;DHT22;15241;48.374;10.876;2023-07-30T08:40:12;23.00;99.90
27896;DHT22;15241;48.374;10.876;2023-07-30T08:45:30;23.10;99.90
27896;DHT22;15241;48.374;10.876;2023-07-30T08:50:49;23.50;99.90
27896;DHT22;15241;48.374;10.876;2023-07-30T08:56:07;23.60;99.90
27896;DHT22;15241;48.374;10.876;2023-07-30T09:01:26;23.80;99.90
27896;DHT22;15241;48.374;10.876;2023-07-30T09:06:48;24.00;99.90
27896;DHT22;15241;48.374;10.876;2023-07-30T09:12:13;24.30;99.90
27896;DHT22;15241;48.374;10.876;2023-07-30T09:17:30;24.20;99.90
27896;DHT22;15241;48.374;10.876;2023-07-30T09:22:48;24.60;99.90
27896;DHT22;15241;48.374;10.876;2023-07-30T09:28:06;25.00;99.90
27896;DHT22;15241;48.374;10.876;2023-07-30T09:33:24;25.10;99.90
27896;DHT22;15241;48.374;10.876;2023-07-30T09:38:42;25.10;99.90
27896;DHT22;15241;48.374;10.876;2023-07-30T09:44:00;25.20;99.90
27896;DHT22;15241;48.374;10.876;2023-07-30T09:49:18;25.40;99.90
27896;DHT22;15241;48.374;10.876;2023-07-30T09:54:37;25.60;99.90
27896;DHT22;15241;48.374;10.876;2023-07-30T09:59:54;25.60;99.90
27896;DHT22;15241;48.374;10.876;2023-07-30T10:05:15;25.70;99.90
27896;DHT22;15241;48.374;10.876;2023-07-30T10:10:33;25.80;99.90
27896;DHT22;15241;48.374;10.876;2023-07-30T10:15:51;25.90;99.90
27896;DHT22;15241;48.374;10.876;2023-07-30T10:21:08;25.50;99.90
27896;DHT22;15241;48.374;10.876;2023-07-30T10:26:28;24.80;99.90
27896;DHT22;15241;48.374;10.876;2023-07-30T10:31:51;24.40;99.90
27896;DHT22;15241;48.374;10.876;2023-07-30T10:37:09;24.10;99.90
27896;DHT22;15241;48.374;10.876;2023-07-30T10:42:34;24.30;99.90
27896;DHT22;15241;48.374;10.876;2023-07-30T10:47:51;24.60;99.90
27896;DHT22;15241;48.374;10.876;2023-07-30T10:53:09;25.10;99.90
27896;DHT22;15241;48.374;10.876;2023-07-30T10:58:26;24.50;99.90
27896;DHT22;15241;48.374;10.876;2023-07-30T11:03:47;24.40;99.90
27896;DHT22;15241;48.374;10.876;2023-07-30T11:09:03;24.70;99.90
27896;DHT22;15241;48.374;10.876;2023-07-30T11:14:22;25.40;99.90
27896;DHT22;15241;48.374;10.876;2023-07-30T11:19:42;25.50;99.90
27896;DHT22;15241;48.374;10.876;2023-07-30T11:24:59;25.80;99.90
27896;DHT22;15241;48.374;10.876;2023-07-30T11:30:17;26.20;99.90
27896;DHT22;15241;48.374;10.876;2023-07-30T11:35:35;26.80;99.90
27896;DHT22;15241;48.374;10.876;2023-07-30T11:40:53;26.90;99.90
27896;DHT22;15241;48.374;10.876;2023-07-30T11:46:13;26.60;99.90
27896;DHT22;15241;48.374;10.876;2023-07-30T11:51:31;26.50;99.90
27896;DHT22;15241;48.374;10.876;2023-07-30T11:56:54;26.60;99.90
27896;DHT22;15241;48.374;10.876;2023-07-30T12:02:18;26.70;99.90
27896;DHT22;15241;48.374;10.876;2023-07-30T12:07:38;27.20;99.90
27896;DHT22;15241;48.374;10.876;2023-07-30T12:12:54;27.80;99.90
27896;DHT22;15241;48.374;10.876;2023-07-30T12:18:11;27.20;99.90
27896;DHT22;15241;48.374;10.876;2023-07-30T12:23:28;26.80;99.90
27896;DHT22;15241;48.374;10.876;2023-07-30T12:28:46;26.30;99.90
27896;DHT22;15241;48.374;10.876;2023-07-30T12:34:03;25.70;99.90
27896;DHT22;15241;48.374;10.876;2023-07-30T12:39:21;25.10;99.90
27896;DHT22;15241;48.374;10.876;2023-07-30T12:44:38;25.20;99.90
27896;DHT22;15241;48.374;10.876;2023-07-30T12:49:56;25.60;99.90
27896;DHT22;15241;48.374;10.876;2023-07-30T12:55:14;26.30;99.90
27896;DHT22;15241;48.374;10.876;2023-07-30T13:00:37;26.80;99.90
27896;DHT22;15241;48.374;10.876;2023-07-30T13:05:58;27.10;99.90
27896;DHT22;15241;48.374;10.876;2023-07-30T13:11:15;27.40;99.90
27896;DHT22;15241;48.374;10.876;2023-07-30T13:16:33;27.80;99.90
27896;DHT22;15241;48.374;10.876;2023-07-30T13:21:51;28.00;99.90
27896;DHT22;15241;48.374;10.876;2023-07-30T13:27:08;28.00;99.90
27896;DHT22;15241;48.374;10.876;2023-07-30T13:32:26;28.20;99.90
27896;DHT22;15241;48.374;10.876;2023-07-30T13:37:43;28.60;99.90
27896;DHT22;15241;48.374;10.876;2023-07-30T13:43:01;28.70;99.90
27896;DHT22;15241;48.374;10.876;2023-07-30T13:48:19;28.50;99.90
27896;DHT22;15241;48.374;10.876;2023-07-30T13:53:36;28.50;99.90
27896;DHT22;15241;48.374;10.876;2023-07-30T13:58:53;28.70;99.90
27896;DHT22;15241;48.374;10.876;2023-07-30T14:04:11;28.70;99.90
27896;DHT22;15241;48.374;10.876;2023-07-30T14:09:28;29.30;99.90
27896;DHT22;15241;48.374;10.876;2023-07-30T14:14:46;29.60;99.90
27896;DHT22;15241;48.374;10.876;2023-07-30T14:20:07;29.60;99.60
27896;DHT22;15241;48.374;10.876;2023-07-30T14:25:24;29.60;98.70
27896;DHT22;15241;48.374;10.876;2023-07-30T14:30:41;29.70;99.10
27896;DHT22;15241;48.374;10.876;2023-07-30T14:35:59;29.40;97.60
27896;DHT22;15241;48.374;10.876;2023-07-30T14:41:16;29.90;97.50
27896;DHT22;15241;48.374;10.876;2023-07-30T14:46:34;29.70;97.70
27896;DHT22;15241;48.374;10.876;2023-07-30T14:51:52;29.80;98.60
27896;DHT22;15241;48.374;10.876;2023-07-30T14:57:09;30.10;98.80
27896;DHT22;15241;48.374;10.876;2023-07-30T15:02:28;30.00;98.60
27896;DHT22;15241;48.374;10.876;2023-07-30T15:07:46;30.20;98.30
27896;DHT22;15241;48.374;10.876;2023-07-30T15:13:04;29.80;96.50
27896;DHT22;15241;48.374;10.876;2023-07-30T15:18:21;29.60;95.70
27896;DHT22;15241;48.374;10.876;2023-07-30T15:23:38;29.90;96.20
27896;DHT22;15241;48.374;10.876;2023-07-30T15:28:56;29.90;95.80
27896;DHT22;15241;48.374;10.876;2023-07-30T15:34:13;29.30;95.20
27896;DHT22;15241;48.374;10.876;2023-07-30T15:39:31;29.00;95.80
27896;DHT22;15241;48.374;10.876;2023-07-30T15:44:49;28.80;95.90
27896;DHT22;15241;48.374;10.876;2023-07-30T15:55:35;29.30;98.50
27896;DHT22;15241;48.374;10.876;2023-07-30T16:00:53;29.30;99.40
27896;DHT22;15241;48.374;10.876;2023-07-30T16:06:10;29.20;99.70
27896;DHT22;15241;48.374;10.876;2023-07-30T16:11:27;29.00;99.20
27896;DHT22;15241;48.374;10.876;2023-07-30T16:16:45;29.00;99.80
27896;DHT22;15241;48.374;10.876;2023-07-30T16:22:03;28.80;99.90
27896;DHT22;15241;48.374;10.876;2023-07-30T16:27:21;28.70;99.90
27896;DHT22;15241;48.374;10.876;2023-07-30T16:32:38;28.80;99.90
27896;DHT22;15241;48.374;10.876;2023-07-30T16:37:55;28.40;99.90
27896;DHT22;15241;48.374;10.876;2023-07-30T16:43:13;28.40;99.90
27896;DHT22;15241;48.374;10.876;2023-07-30T16:48:30;28.10;99.90
27896;DHT22;15241;48.374;10.876;2023-07-30T16:53:48;27.90;99.90
27896;DHT22;15241;48.374;10.876;2023-07-30T16:59:06;28.00;99.90
27896;DHT22;15241;48.374;10.876;2023-07-30T17:04:23;28.00;99.90
27896;DHT22;15241;48.374;10.876;2023-07-30T17:09:41;27.80;99.90
27896;DHT22;15241;48.374;10.876;2023-07-30T17:14:58;27.30;99.90
27896;DHT22;15241;48.374;10.876;2023-07-30T17:20:18;27.30;99.90
27896;DHT22;15241;48.374;10.876;2023-07-30T17:25:35;27.40;99.90
27896;DHT22;15241;48.374;10.876;2023-07-30T17:30:53;27.10;99.90
27896;DHT22;15241;48.374;10.876;2023-07-30T17:36:10;26.80;99.90
27896;DHT22;15241;48.374;10.876;2023-07-30T17:41:27;26.50;99.90
27896;DHT22;15241;48.374;10.876;2023-07-30T17:46:45;26.10;99.90
27896;DHT22;15241;48.374;10.876;2023-07-30T17:52:03;25.50;99.90
27896;DHT22;15241;48.374;10.876;2023-07-30T17:57:20;25.20;99.90
27896;DHT22;15241;48.374;10.876;2023-07-30T18:02:38;24.70;99.90
27896;DHT22;15241;48.374;10.876;2023-07-30T18:07:55;24.30;99.90
27896;DHT22;15241;48.374;10.876;2023-07-30T18:13:13;24.10;99.90
27896;DHT22;15241;48.374;10.876;2023-07-30T18:18:31;23.90;99.90
27896;DHT22;15241;48.374;10.876;2023-07-30T18:23:49;23.70;99.90
27896;DHT22;15241;48.374;10.876;2023-07-30T18:29:06;23.40;99.90
27896;DHT22;15241;48.374;10.876;2023-07-30T18:34:24;23.30;99.90
27896;DHT22;15241;48.374;10.876;2023-07-30T18:39:42;23.00;99.90
27896;DHT22;15241;48.374;10.876;2023-07-30T18:44:59;22.70;99.90
27896;DHT22;15241;48.374;10.876;2023-07-30T18:50:17;22.50;99.90
27896;DHT22;15241;48.374;10.876;2023-07-30T18:55:35;22.30;99.90
27896;DHT22;15241;48.374;10.876;2023-07-30T19:00:52;22.10;99.90
27896;DHT22;15241;48.374;10.876;2023-07-30T19:06:09;21.90;99.90
27896;DHT22;15241;48.374;10.876;2023-07-30T19:11:27;21.70;99.90
27896;DHT22;15241;48.374;10.876;2023-07-30T19:16:44;21.70;99.90
27896;DHT22;15241;48.374;10.876;2023-07-30T19:22:02;21.60;99.90
27896;DHT22;15241;48.374;10.876;2023-07-30T19:27:19;21.40;99.90
27896;DHT22;15241;48.374;10.876;2023-07-30T19:32:37;21.30;99.90
27896;DHT22;15241;48.374;10.876;2023-07-30T19:37:54;21.20;99.90
27896;DHT22;15241;48.374;10.876;2023-07-30T19:43:12;21.10;99.90
27896;DHT22;15241;48.374;10.876;2023-07-30T19:48:30;21.10;99.90
27896;DHT22;15241;48.374;10.876;2023-07-30T19:53:47;21.00;99.90
27896;DHT22;15241;48.374;10.876;2023-07-30T19:59:04;20.90;99.90
27896;DHT22;15241;48.374;10.876;2023-07-30T20:04:22;20.80;99.90
27896;DHT22;15241;48.374;10.876;2023-07-30T20:09:40;20.70;99.90
27896;DHT22;15241;48.374;10.876;2023-07-30T20:14:57;20.60;99.90
27896;DHT22;15241;48.374;10.876;2023-07-30T20:20:15;20.50;99.90
27896;DHT22;15241;48.374;10.876;2023-07-30T20:25:33;20.50;99.90
27896;DHT22;15241;48.374;10.876;2023-07-30T20:30:50;20.40;99.90
27896;DHT22;15241;48.374;10.876;2023-07-30T20:36:08;20.30;99.90
27896;DHT22;15241;48.374;10.876;2023-07-30T20:41:26;20.20;99.90
27896;DHT22;15241;48.374;10.876;2023-07-30T20:46:43;20.10;99.90
27896;DHT22;15241;48.374;10.876;2023-07-30T20:52:01;20.00;99.90
27896;DHT22;15241;48.374;10.876;2023-07-30T20:57:18;20.00;99.90
27896;DHT22;15241;48.374;10.876;2023-07-30T21:02:36;20.00;99.90
27896;DHT22;15241;48.374;10.876;2023-07-30T21:07:54;20.00;99.90
27896;DHT22;15241;48.374;10.876;2023-07-30T21:13:12;20.00;99.90
27896;DHT22;15241;48.374;10.876;2023-07-30T21:18:29;19.90;99.90
27896;DHT22;15241;48.374;10.876;2023-07-30T21:23:47;19.90;99.90
27896;DHT22;15241;48.374;10.876;2023-07-30T21:29:04;19.80;99.90
27896;DHT22;15241;48.374;10.876;2023-07-30T21:34:24;19.60;99.90
27896;DHT22;15241;48.374;10.876;2023-07-30T21:39:42;19.50;99.90
27896;DHT22;15241;48.374;10.876;2023-07-30T21:45:00;19.50;99.90
27896;DHT22;15241;48.374;10.876;2023-07-30T21:50:17;19.40;99.90
27896;DHT22;15241;48.374;10.876;2023-07-30T21:55:35;19.40;99.90
27896;DHT22;15241;48.374;10.876;2023-07-30T22:00:54;19.30;99.90
27896;DHT22;15241;48.374;10.876;2023-07-30T22:06:12;19.20;99.90
27896;DHT22;15241;48.374;10.876;2023-07-30T22:11:29;19.10;99.90
27896;DHT22;15241;48.374;10.876;2023-07-30T22:16:47;19.00;99.90
27896;DHT22;15241;48.374;10.876;2023-07-30T22:22:06;18.90;99.90
27896;DHT22;15241;48.374;10.876;2023-07-30T22:27:24;18.80;99.90
27896;DHT22;15241;48.374;10.876;2023-07-30T22:32:41;18.60;99.90
27896;DHT22;15241;48.374;10.876;2023-07-30T22:37:59;18.50;99.90
27896;DHT22;15241;48.374;10.876;2023-07-30T22:43:17;18.40;99.90
27896;DHT22;15241;48.374;10.876;2023-07-30T22:48:34;18.40;99.90
27896;DHT22;15241;48.374;10.876;2023-07-30T22:53:52;18.40;99.90
27896;DHT22;15241;48.374;10.876;2023-07-30T22:59:10;18.30;99.90
27896;DHT22;15241;48.374;10.876;2023-07-30T23:04:27;18.30;99.90
27896;DHT22;15241;48.374;10.876;2023-07-30T23:09:45;18.20;99.90
27896;DHT22;15241;48.374;10.876;2023-07-30T23:15:03;18.10;99.90
27896;DHT22;15241;48.374;10.876;2023-07-30T23:20:21;18.00;99.90
27896;DHT22;15241;48.374;10.876;2023-07-30T23:25:38;17.90;99.90
27896;DHT22;15241;48.374;10.876;2023-07-30T23:30:56;17.90;99.90
27896;DHT22;15241;48.374;10.876;2023-07-30T23:36:15;17.80;99.90
27896;DHT22;15241;48.374;10.876;2023-07-30T23:41:32;17.70;99.90
27896;DHT22;15241;48.374;10.876;2023-07-30T23:46:50;17.60;99.90
27896;DHT22;15241;48.374;10.876;2023-07-30T23:52:08;17.40;99.90
27896;DHT22;15241;48.374;10.876;2023-07-30T23:57:26;17.30;99.90
